Time;durP1;ratioP1;P1;durP2;ratioP2;P2;SDS_P1;SDS_P2;PMS_P1;PMS_P2;Temp;Humidity;BMP_temperature;BMP_pressure;BME280_temperature;BME280_humidity;BME280_pressure;Samples;Min_cycle;Max_cycle;Signal;HPM_P1;HPM_P2
2022/05/01 00:00:10;;;;;;;316.30;125.13;;;;;;;15.22;70.34;100064.03;417908;23;1250;-80
2022/05/01 00:00:23;;;;;;;321.17;126.95;;;;;;;15.21;70.06;100070.25;418113;23;1261;-80
2022/05/01 00:00:33;;;;;;;323.75;125.53;;;;;;;15.19;70.14;100058.94;416242;23;852;-80
2022/05/01 00:00:43;;;;;;;321.80;123.47;;;;;;;15.20;69.63;100068.53;414828;23;1231;-80
2022/05/01 00:00:54;;;;;;;320.92;123.93;;;;;;;15.24;70.12;100067.44;418436;23;1140;-80
2022/05/01 00:01:04;;;;;;;321.27;125.27;;;;;;;15.23;69.94;100068.38;417892;23;1352;-80
2022/05/01 00:01:15;;;;;;;317.70;125.60;;;;;;;15.21;70.08;100067.63;419952;23;1453;-80
2022/05/01 00:01:25;;;;;;;318.33;125.30;;;;;;;15.20;69.89;100071.19;415852;23;1202;-80
2022/05/01 00:01:35;;;;;;;315.65;124.13;;;;;;;15.21;70.25;100059.69;416067;23;1209;-80
2022/05/01 00:01:46;;;;;;;318.40;126.33;;;;;;;15.24;70.30;100056.91;416130;23;1501;-80
2022/05/01 00:01:56;;;;;;;316.42;126.18;;;;;;;15.25;70.19;100069.16;416268;23;1327;-80
2022/05/01 00:02:07;;;;;;;320.23;128.67;;;;;;;15.23;70.13;100063.97;418774;23;1356;-80
2022/05/01 00:02:17;;;;;;;319.10;125.88;;;;;;;15.21;70.01;100068.47;419054;23;936;-80
2022/05/01 00:02:28;;;;;;;317.97;123.73;;;;;;;15.18;70.16;100062.50;419986;23;1189;-80
2022/05/01 00:02:38;;;;;;;316.48;123.25;;;;;;;15.16;70.14;100059.94;417872;23;1279;-80
2022/05/01 00:02:48;;;;;;;318.50;125.67;;;;;;;15.13;69.89;100056.66;413981;23;1193;-80
2022/05/01 00:02:59;;;;;;;319.40;126.00;;;;;;;15.08;70.25;100061.31;420075;23;1213;-80
2022/05/01 00:03:30;;;;;;;318.60;122.87;;;;;;;15.11;69.92;100066.41;418155;23;1232;-80
2022/05/01 00:03:40;;;;;;;316.67;124.35;;;;;;;15.09;70.54;100063.00;419426;23;1187;-78
2022/05/01 00:03:50;;;;;;;315.00;124.72;;;;;;;15.05;70.43;100064.09;421631;23;1420;-79
2022/05/01 00:04:01;;;;;;;318.43;126.63;;;;;;;15.08;70.49;100063.94;417935;23;1281;-80
2022/05/01 00:04:11;;;;;;;318.30;126.43;;;;;;;15.08;70.71;100066.56;415656;23;1218;-80
2022/05/01 00:04:23;;;;;;;319.17;127.50;;;;;;;15.07;70.59;100067.50;420121;23;1546;-80
2022/05/01 00:04:33;;;;;;;315.95;126.15;;;;;;;15.06;70.24;100068.44;418029;23;1378;-80
2022/05/01 00:04:44;;;;;;;310.27;121.60;;;;;;;15.06;70.68;100065.81;418682;23;1429;-80
2022/05/01 00:04:55;;;;;;;312.02;121.78;;;;;;;15.05;70.88;100064.09;416666;23;1313;-80
2022/05/01 00:05:06;;;;;;;317.80;125.38;;;;;;;15.04;70.77;100072.94;419911;23;1497;-80
2022/05/01 00:05:16;;;;;;;324.00;129.10;;;;;;;15.04;70.80;100065.03;419799;23;1276;-80
2022/05/01 00:05:27;;;;;;;319.65;126.03;;;;;;;15.03;70.65;100064.16;417811;23;1221;-80
2022/05/01 00:05:37;;;;;;;320.33;125.87;;;;;;;15.08;70.65;100066.56;418025;23;1301;-80
2022/05/01 00:05:47;;;;;;;321.13;126.00;;;;;;;15.07;70.64;100067.50;420360;23;1260;-80
2022/05/01 00:05:58;;;;;;;325.80;128.50;;;;;;;15.08;70.52;100066.56;420673;23;1173;-80
2022/05/01 00:06:11;;;;;;;326.55;128.32;;;;;;;15.12;70.50;100062.84;416305;23;1127;-80
2022/05/01 00:06:21;;;;;;;320.25;124.25;;;;;;;15.13;70.47;100069.81;419974;23;1429;-80
2022/05/01 00:06:33;;;;;;;317.17;122.27;;;;;;;15.13;70.84;100070.69;419907;23;1031;-80
2022/05/01 00:06:43;;;;;;;318.58;124.90;;;;;;;15.09;70.50;100065.63;415840;23;1322;-80
2022/05/01 00:06:53;;;;;;;321.57;126.60;;;;;;;15.13;70.50;100072.47;417988;23;1178;-80
2022/05/01 00:07:04;;;;;;;323.13;128.53;;;;;;;15.11;70.52;100067.28;420116;23;1287;-80
2022/05/01 00:07:14;;;;;;;324.20;128.63;;;;;;;15.10;70.37;100064.72;418563;23;1294;-80
2022/05/01 00:07:25;;;;;;;323.60;129.03;;;;;;;15.10;70.48;100072.63;417152;23;1289;-80
2022/05/01 00:07:36;;;;;;;321.80;126.50;;;;;;;15.09;70.43;100070.91;418080;23;1292;-80
2022/05/01 00:07:46;;;;;;;321.10;126.68;;;;;;;15.08;70.52;100062.16;414051;23;1371;-80
2022/05/01 00:07:58;;;;;;;319.70;126.03;;;;;;;15.08;70.47;100066.56;416087;23;1291;-81
2022/05/01 00:08:09;;;;;;;317.73;125.60;;;;;;;15.09;70.38;100074.41;414156;23;922;-81
2022/05/01 00:08:19;;;;;;;319.33;125.57;;;;;;;15.09;70.32;100070.91;414209;23;1357;-80
2022/05/01 00:08:30;;;;;;;322.75;126.85;;;;;;;15.08;71.03;100066.56;420351;23;1287;-80
2022/05/01 00:08:42;;;;;;;324.97;128.27;;;;;;;15.08;70.49;100069.22;418905;23;1281;-80
2022/05/01 00:08:52;;;;;;;318.95;126.03;;;;;;;15.09;70.88;100070.91;415942;23;1311;-80
2022/05/01 00:09:03;;;;;;;317.53;125.83;;;;;;;15.07;70.60;100071.00;417939;23;1303;-80
2022/05/01 00:09:13;;;;;;;316.60;123.22;;;;;;;15.06;70.69;100068.44;419949;23;1273;-80
2022/05/01 00:09:24;;;;;;;317.23;122.87;;;;;;;15.07;70.63;100070.13;415621;23;1270;-80
2022/05/01 00:09:34;;;;;;;318.80;124.23;;;;;;;15.07;71.02;100070.13;419977;23;1201;-80
2022/05/01 00:09:45;;;;;;;322.08;125.88;;;;;;;15.00;70.77;100064.34;418334;23;822;-80
2022/05/01 00:09:55;;;;;;;323.07;127.90;;;;;;;15.04;70.89;100068.50;416816;23;1312;-80
2022/05/01 00:10:06;;;;;;;324.30;127.68;;;;;;;15.03;70.97;100066.81;416848;23;1264;-80
2022/05/01 00:10:17;;;;;;;321.45;127.07;;;;;;;15.05;70.94;100072.00;415753;23;1453;-80
2022/05/01 00:10:27;;;;;;;320.77;126.57;;;;;;;15.04;71.13;100073.78;417812;23;1309;-80
2022/05/01 00:10:38;;;;;;;318.27;124.72;;;;;;;15.01;71.04;100070.47;421862;23;1297;-80
2022/05/01 00:10:48;;;;;;;320.60;126.40;;;;;;;15.07;70.63;100080.69;420000;23;1219;-80
2022/05/01 00:11:00;;;;;;;321.70;127.73;;;;;;;15.02;70.82;100061.63;416077;23;1270;-80
2022/05/01 00:11:10;;;;;;;320.15;126.45;;;;;;;15.00;70.64;100063.47;418442;23;1493;-80
2022/05/01 00:11:20;;;;;;;319.57;125.83;;;;;;;15.02;71.18;100080.06;416803;23;1923;-80
2022/05/01 00:11:31;;;;;;;319.63;125.43;;;;;;;15.01;70.88;100076.59;413965;23;1282;-80
2022/05/01 00:11:42;;;;;;;320.42;126.18;;;;;;;15.01;71.20;100081.00;416154;23;817;-80
2022/05/01 00:11:53;;;;;;;319.13;125.63;;;;;;;14.97;70.89;100069.75;422007;23;1456;-80
2022/05/01 00:12:04;;;;;;;317.17;124.13;;;;;;;14.91;70.96;100065.66;417960;23;1395;-80
2022/05/01 00:12:14;;;;;;;315.77;122.93;;;;;;;14.97;71.09;100075.88;417853;23;1286;-80
2022/05/01 00:12:24;;;;;;;315.53;122.27;;;;;;;14.97;71.00;100075.03;416194;23;1199;-80
2022/05/01 00:12:35;;;;;;;316.15;122.47;;;;;;;14.97;71.24;100067.97;415049;23;1334;-80
2022/05/01 00:12:46;;;;;;;315.27;121.77;;;;;;;14.94;71.03;100069.91;418664;23;1173;-80
2022/05/01 00:12:56;;;;;;;314.77;121.68;;;;;;;14.99;71.04;100075.81;417923;23;988;-80
2022/05/01 00:13:08;;;;;;;315.27;122.30;;;;;;;15.01;71.00;100070.47;413943;23;1188;-80
2022/05/01 00:13:18;;;;;;;316.38;124.45;;;;;;;15.05;70.78;100072.00;414171;23;844;-80
2022/05/01 00:13:29;;;;;;;315.77;125.22;;;;;;;15.04;71.01;100075.56;418080;23;1359;-80
2022/05/01 00:13:40;;;;;;;315.90;126.82;;;;;;;15.03;70.90;100073.88;422522;23;1048;-80
2022/05/01 00:13:51;;;;;;;316.83;127.22;;;;;;;14.98;70.82;100074.94;420638;23;1363;-80
2022/05/01 00:14:01;;;;;;;318.00;128.37;;;;;;;15.02;70.93;100072.16;416718;23;1300;-80
2022/05/01 00:14:12;;;;;;;316.15;126.60;;;;;;;15.03;71.28;100074.72;421644;23;1036;-80
2022/05/01 00:14:22;;;;;;;316.50;126.50;;;;;;;15.02;70.85;100072.16;417843;23;1289;-80
2022/05/01 00:14:33;;;;;;;315.98;124.43;;;;;;;15.04;70.68;100080.84;415911;23;1202;-80
2022/05/01 00:14:43;;;;;;;316.33;123.75;;;;;;;15.04;70.77;100080.84;420024;23;1678;-80
2022/05/01 00:14:54;;;;;;;319.47;125.37;;;;;;;15.00;70.88;100074.03;416021;23;1272;-80
2022/05/01 00:15:06;;;;;;;319.88;125.75;;;;;;;15.05;70.82;100088.66;414388;23;1266;-80
2022/05/01 00:15:17;;;;;;;319.13;126.03;;;;;;;15.01;70.52;100081.00;417226;23;1398;-80
2022/05/01 00:15:27;;;;;;;316.00;124.85;;;;;;;14.94;70.87;100081.31;415855;23;1399;-80
2022/05/01 00:15:37;;;;;;;316.20;124.17;;;;;;;14.90;70.95;100076.28;413826;23;1452;-80
2022/05/01 00:15:48;;;;;;;315.93;125.87;;;;;;;14.93;71.06;100079.59;419910;23;1324;-80
2022/05/01 00:15:58;;;;;;;316.80;125.97;;;;;;;14.94;71.06;100081.31;417993;23;1337;-80
2022/05/01 00:16:09;;;;;;;317.30;125.30;;;;;;;14.91;70.78;100076.19;414074;23;1246;-80
2022/05/01 00:16:19;;;;;;;322.17;124.60;;;;;;;14.97;70.76;100090.84;414260;23;1342;-80
2022/05/01 00:16:30;;;;;;;319.63;122.63;;;;;;;14.95;70.74;100077.75;416709;23;1226;-80
2022/05/01 00:16:40;;;;;;;320.00;123.73;;;;;;;14.95;70.85;100080.38;414472;23;1197;-80
2022/05/01 00:16:51;;;;;;;316.97;123.73;;;;;;;14.94;70.72;100081.31;415770;23;1189;-80
2022/05/01 00:17:01;;;;;;;318.90;124.15;;;;;;;15.02;70.83;100082.72;415846;23;1188;-80
2022/05/01 00:17:12;;;;;;;317.55;121.97;;;;;;;15.03;70.61;100087.03;417984;23;1208;-80
2022/05/01 00:17:22;;;;;;;317.83;122.33;;;;;;;15.04;70.50;100083.47;418058;23;757;-80
2022/05/01 00:17:33;;;;;;;317.85;123.07;;;;;;;15.01;70.48;100086.28;416149;23;1308;-80
2022/05/01 00:17:43;;;;;;;318.83;124.00;;;;;;;14.97;70.89;100081.16;416581;23;986;-80
2022/05/01 00:17:53;;;;;;;319.33;125.23;;;;;;;14.98;70.74;100080.22;419205;23;1224;-80
2022/05/01 00:18:04;;;;;;;319.30;125.90;;;;;;;14.98;70.57;100082.84;417926;23;742;-80
2022/05/01 00:18:14;;;;;;;318.20;125.47;;;;;;;14.88;70.43;100070.22;416002;23;980;-80
2022/05/01 00:18:25;;;;;;;319.67;126.07;;;;;;;14.92;70.46;100083.19;415980;23;1174;-80
2022/05/01 00:18:36;;;;;;;319.83;124.87;;;;;;;14.88;70.95;100078.97;414094;23;1043;-80
2022/05/01 00:18:46;;;;;;;323.10;127.40;;;;;;;14.88;70.34;100091.31;416427;23;1268;-80
2022/05/01 00:18:56;;;;;;;319.63;125.07;;;;;;;14.85;70.55;100075.66;420287;23;1231;-80
2022/05/01 00:19:08;;;;;;;320.43;124.23;;;;;;;14.74;70.61;100081.47;420469;23;1290;-80
2022/05/01 00:19:19;;;;;;;317.20;120.55;;;;;;;14.72;70.72;100087.78;418252;23;824;-80
2022/05/01 00:19:29;;;;;;;318.73;122.33;;;;;;;14.69;71.27;100088.78;415739;23;1305;-80
2022/05/01 00:19:40;;;;;;;321.83;125.27;;;;;;;14.68;71.23;100068.63;416014;23;936;-80
2022/05/01 00:19:51;;;;;;;323.63;126.78;;;;;;;14.70;70.90;100082.56;420050;23;1229;-80
2022/05/01 00:20:01;;;;;;;321.00;125.90;;;;;;;14.73;71.20;100077.13;415997;23;1297;-80
2022/05/01 00:20:11;;;;;;;321.43;125.00;;;;;;;14.75;71.08;100079.69;420327;23;1425;-80
2022/05/01 00:20:22;;;;;;;320.13;124.82;;;;;;;14.77;71.24;100083.94;418359;23;846;-80
2022/05/01 00:20:32;;;;;;;320.57;123.83;;;;;;;14.77;70.80;100078.69;416979;23;1144;-80
2022/05/01 00:20:43;;;;;;;318.77;122.73;;;;;;;14.81;71.08;100088.13;419695;23;1134;-80
2022/05/01 00:20:53;;;;;;;319.48;121.72;;;;;;;14.81;70.97;100080.22;416025;23;1302;-80
2022/05/01 00:21:04;;;;;;;318.97;122.70;;;;;;;14.85;70.85;100087.03;414214;23;798;-80
2022/05/01 00:21:14;;;;;;;318.52;122.72;;;;;;;14.83;70.98;100083.63;416034;23;852;-80
2022/05/01 00:21:25;;;;;;;317.88;122.28;;;;;;;14.76;71.01;100090.16;416513;23;1042;-80
2022/05/01 00:21:36;;;;;;;319.23;123.63;;;;;;;14.67;71.08;100081.88;414444;23;1280;-80
2022/05/01 00:21:47;;;;;;;320.85;124.35;;;;;;;14.62;71.48;100084.75;417038;23;1407;-80
2022/05/01 00:21:59;;;;;;;320.57;124.90;;;;;;;14.54;71.47;100084.25;420077;23;1211;-80
2022/05/01 00:22:09;;;;;;;322.05;124.57;;;;;;;14.56;71.77;100090.31;413999;23;1269;-80
2022/05/01 00:22:19;;;;;;;321.27;123.43;;;;;;;14.60;71.79;100090.09;414098;23;1313;-80
2022/05/01 00:22:30;;;;;;;322.07;123.33;;;;;;;14.61;71.44;100088.31;415973;23;1186;-80
2022/05/01 00:22:40;;;;;;;322.63;122.80;;;;;;;14.63;71.71;100091.72;418149;23;1358;-80
2022/05/01 00:22:51;;;;;;;322.08;123.13;;;;;;;14.59;71.43;100084.88;420458;23;823;-80
2022/05/01 00:23:02;;;;;;;321.57;122.97;;;;;;;14.59;71.66;100090.16;420778;23;1199;-80
2022/05/01 00:23:13;;;;;;;318.77;122.80;;;;;;;14.60;71.75;100087.44;420566;23;1280;-80
2022/05/01 00:23:23;;;;;;;315.98;122.38;;;;;;;14.56;71.77;100087.66;419790;23;1303;-80
2022/05/01 00:23:34;;;;;;;315.03;122.03;;;;;;;14.58;71.40;100078.78;417896;23;1347;-80
2022/05/01 00:23:44;;;;;;;315.63;120.68;;;;;;;14.58;71.68;100091.09;418285;23;789;-80
2022/05/01 00:23:55;;;;;;;314.57;118.90;;;;;;;14.56;71.46;100075.34;420027;23;1200;-80
2022/05/01 00:24:06;;;;;;;315.33;121.13;;;;;;;14.63;71.71;100084.66;418243;23;749;-80
2022/05/01 00:24:16;;;;;;;315.65;121.93;;;;;;;14.68;71.61;100091.47;416821;23;1027;-80
2022/05/01 00:24:26;;;;;;;316.63;123.03;;;;;;;14.66;71.36;100086.28;415273;23;1123;-80
2022/05/01 00:24:37;;;;;;;319.90;122.88;;;;;;;14.67;71.75;100088.00;417608;23;1254;-80
2022/05/01 00:24:47;;;;;;;322.30;125.47;;;;;;;14.69;71.40;100086.13;417868;23;1260;-80
2022/05/01 00:24:58;;;;;;;322.80;124.63;;;;;;;14.70;71.52;100082.56;416104;23;1250;-80
2022/05/01 00:25:08;;;;;;;320.92;123.18;;;;;;;14.73;71.37;100092.94;420089;23;1206;-80
2022/05/01 00:25:19;;;;;;;319.95;121.90;;;;;;;14.75;71.43;100084.94;417852;23;1371;-80
2022/05/01 00:25:30;;;;;;;319.93;124.00;;;;;;;14.74;71.29;100083.25;418475;23;1269;-80
2022/05/01 00:25:42;;;;;;;316.08;123.32;;;;;;;14.76;71.28;100081.38;417032;23;1384;-80
2022/05/01 00:25:53;;;;;;;315.80;123.55;;;;;;;14.77;71.13;100086.56;420346;23;1340;-80
2022/05/01 00:26:04;;;;;;;318.38;124.50;;;;;;;14.74;71.28;100084.09;417899;23;1327;-80
2022/05/01 00:26:14;;;;;;;318.52;124.60;;;;;;;14.80;70.93;100088.22;416145;23;1311;-80
2022/05/01 00:26:25;;;;;;;318.47;124.50;;;;;;;14.74;70.87;100078.81;419895;23;899;-80
2022/05/01 00:26:35;;;;;;;320.25;123.93;;;;;;;14.78;71.01;100087.44;418092;23;1270;-80
2022/05/01 00:26:46;;;;;;;320.73;124.77;;;;;;;14.70;71.00;100072.03;414146;23;1325;-80
2022/05/01 00:26:56;;;;;;;319.97;124.17;;;;;;;14.69;71.14;100083.50;414793;23;1028;-80
2022/05/01 00:27:07;;;;;;;321.58;127.13;;;;;;;14.68;71.41;100083.59;418939;23;1285;-80
2022/05/01 00:27:17;;;;;;;321.07;126.57;;;;;;;14.67;71.38;100081.88;418184;23;840;-80
2022/05/01 00:27:29;;;;;;;318.75;124.18;;;;;;;14.70;71.50;100087.00;417885;23;983;-80
2022/05/01 00:27:40;;;;;;;314.27;119.72;;;;;;;14.72;71.27;100078.09;416090;23;1391;-80
2022/05/01 00:27:51;;;;;;;315.85;121.63;;;;;;;14.69;71.17;100075.59;415830;23;1363;-80
2022/05/01 00:28:01;;;;;;;315.40;124.60;;;;;;;14.71;71.43;100081.66;418243;23;1269;-80
2022/05/01 00:28:12;;;;;;;318.30;125.50;;;;;;;14.74;71.19;100076.19;414713;23;1175;-80
2022/05/01 00:28:23;;;;;;;318.15;125.10;;;;;;;14.76;71.26;100087.50;421211;23;1295;-80
2022/05/01 00:28:36;;;;;;;316.58;122.85;;;;;;;14.73;71.41;100087.66;419731;23;1381;-80
2022/05/01 00:28:47;;;;;;;312.83;117.20;;;;;;;14.67;71.48;100088.00;416489;23;967;-80
2022/05/01 00:28:57;;;;;;;315.80;117.93;;;;;;;14.60;71.65;100082.19;418885;23;1277;-80
2022/05/01 00:29:07;;;;;;;323.03;124.63;;;;;;;14.61;71.56;100089.16;418063;23;1474;-80
2022/05/01 00:29:18;;;;;;;321.30;125.95;;;;;;;14.62;71.62;100085.59;416381;23;738;-80
2022/05/01 00:29:30;;;;;;;320.80;126.97;;;;;;;14.59;71.83;100079.63;416551;23;1312;-80
2022/05/01 00:29:41;;;;;;;319.88;123.88;;;;;;;14.59;71.93;100082.25;417013;23;1389;-80
2022/05/01 00:29:51;;;;;;;322.00;125.63;;;;;;;14.63;71.81;100081.19;416013;23;1191;-80
2022/05/01 00:30:02;;;;;;;322.60;125.47;;;;;;;14.65;71.92;100079.31;419977;23;1280;-80
2022/05/01 00:30:13;;;;;;;322.52;125.56;;;;;;;14.66;71.92;100085.44;416116;23;1293;-80
2022/05/01 00:30:26;;;;;;;321.40;125.40;;;;;;;14.63;71.68;100078.53;418083;23;1305;-80
2022/05/01 00:30:36;;;;;;;314.88;123.32;;;;;;;14.59;71.42;100075.19;418138;23;1467;-80
2022/05/01 00:30:47;;;;;;;315.57;122.80;;;;;;;14.56;71.81;100080.63;416485;23;1400;-80
2022/05/01 00:30:57;;;;;;;318.87;123.23;;;;;;;14.58;71.89;100088.44;421495;23;1065;-80
2022/05/01 00:31:08;;;;;;;319.95;124.22;;;;;;;14.57;71.90;100076.22;418170;23;1185;-80
2022/05/01 00:31:18;;;;;;;318.60;124.53;;;;;;;14.60;72.11;100076.06;416428;23;1352;-80
2022/05/01 00:31:28;;;;;;;319.70;123.68;;;;;;;14.63;71.92;100083.81;416524;23;1893;-80
2022/05/01 00:31:40;;;;;;;322.43;124.70;;;;;;;14.66;71.85;100085.44;414913;23;1317;-80
2022/05/01 00:31:50;;;;;;;320.08;122.82;;;;;;;14.64;71.93;100082.88;416090;23;1391;-80
2022/05/01 00:32:02;;;;;;;318.58;123.65;;;;;;;14.63;71.90;100087.28;420500;23;746;-80
2022/05/01 00:32:12;;;;;;;319.73;124.43;;;;;;;14.65;71.94;100079.31;423020;23;1297;-80
2022/05/01 00:32:23;;;;;;;320.27;124.40;;;;;;;14.64;71.82;100082.88;420816;23;1203;-80
2022/05/01 00:36:25;;;;;;;319.27;124.70;;;;;;;14.68;71.96;100084.44;413909;23;1203;-80
2022/05/01 00:36:27;;;;;;;312.05;121.22;;;;;;;14.53;72.27;100088.69;418159;23;702;-80
2022/05/01 00:36:37;;;;;;;311.43;120.33;;;;;;;14.55;72.47;100092.09;420531;23;1319;-80
2022/05/01 00:36:48;;;;;;;311.23;119.20;;;;;;;14.57;72.32;100092.00;423262;23;1284;-80
2022/05/01 00:36:58;;;;;;;311.17;118.57;;;;;;;14.56;72.29;100085.03;415994;23;1225;-80
2022/05/01 00:37:08;;;;;;;311.97;118.83;;;;;;;14.53;72.29;100101.00;420336;23;1254;-80
2022/05/01 00:37:19;;;;;;;313.27;120.95;;;;;;;14.51;72.54;100102.84;418389;23;1261;-80
2022/05/01 00:37:30;;;;;;;315.90;122.55;;;;;;;14.51;72.31;100097.56;416768;23;1498;-80
2022/05/01 00:37:40;;;;;;;320.23;123.37;;;;;;;14.48;72.56;100097.72;418852;23;1160;-80
2022/05/01 00:37:51;;;;;;;317.45;122.05;;;;;;;14.46;72.57;100104.84;416101;23;1178;-80
2022/05/01 00:38:01;;;;;;;317.63;122.60;;;;;;;14.39;72.68;100098.16;418257;23;801;-80
2022/05/01 00:38:12;;;;;;;315.73;121.95;;;;;;;14.34;73.06;100101.00;417923;23;782;-80
2022/05/01 00:38:24;;;;;;;318.67;123.78;;;;;;;14.24;73.07;100092.72;422299;23;1341;-80
2022/05/01 00:38:35;;;;;;;318.23;124.85;;;;;;;14.26;73.38;100106.66;418420;23;1396;-80
2022/05/01 00:38:45;;;;;;;319.83;123.77;;;;;;;14.25;73.47;100089.16;415289;23;1253;-80
2022/05/01 00:38:56;;;;;;;321.43;124.30;;;;;;;14.35;73.31;100100.06;416504;23;1446;-80
2022/05/01 00:39:07;;;;;;;321.23;123.82;;;;;;;14.35;73.26;100091.31;416080;23;1053;-80
2022/05/01 00:39:18;;;;;;;319.30;121.93;;;;;;;14.45;73.09;100103.16;417040;23;742;-80
2022/05/01 00:39:28;;;;;;;318.53;121.13;;;;;;;14.48;72.74;100100.38;418604;23;1029;-80
2022/05/01 00:39:38;;;;;;;317.90;120.50;;;;;;;14.53;72.83;100098.34;419910;23;1471;-80
2022/05/01 00:39:49;;;;;;;318.80;123.53;;;;;;;14.51;72.63;100098.44;416232;23;1178;-80
2022/05/01 00:40:00;;;;;;;319.20;123.65;;;;;;;14.57;72.77;100111.31;418484;23;1429;-80
2022/05/01 00:40:11;;;;;;;321.27;124.40;;;;;;;14.60;72.73;100100.63;417114;23;1265;-80
2022/05/01 00:40:21;;;;;;;320.52;123.03;;;;;;;14.63;72.50;100096.97;418317;23;1252;-80
2022/05/01 00:40:32;;;;;;;320.00;123.13;;;;;;;14.66;72.32;100101.25;415884;23;1199;-80
2022/05/01 00:40:42;;;;;;;317.05;122.68;;;;;;;14.65;72.24;100105.66;418216;23;1205;-80
2022/05/01 00:40:54;;;;;;;316.00;123.17;;;;;;;14.67;72.28;100101.16;418202;23;1324;-80
2022/05/01 00:41:07;;;;;;;312.92;122.10;;;;;;;14.68;72.27;100099.38;418436;23;1415;-80
2022/05/01 00:41:17;;;;;;;309.05;118.10;;;;;;;14.69;72.08;100109.00;418925;23;954;-80
2022/05/01 00:41:28;;;;;;;309.50;118.07;;;;;;;14.66;72.17;100102.09;417007;23;1317;-80
2022/05/01 00:41:43;;;;;;;310.70;119.05;;;;;;;14.62;72.28;100097.91;420257;23;1378;-80
2022/05/01 00:41:53;;;;;;;314.55;121.00;;;;;;;14.64;72.27;100114.50;420822;23;1383;-80
2022/05/01 00:42:04;;;;;;;317.52;122.47;;;;;;;14.64;72.21;100099.53;418793;23;1026;-80
2022/05/01 00:42:16;;;;;;;316.03;121.57;;;;;;;14.62;71.95;100106.66;419989;23;1197;-80
2022/05/01 00:42:27;;;;;;;316.83;122.60;;;;;;;14.66;71.99;100110.00;420179;23;1324;-80
2022/05/01 00:42:37;;;;;;;316.63;123.33;;;;;;;14.68;72.30;100110.78;416454;23;757;-80
2022/05/01 00:42:48;;;;;;;321.20;125.25;;;;;;;14.66;72.18;100110.00;416915;23;1313;-80
2022/05/01 00:43:05;;;;;;;325.63;126.17;;;;;;;14.71;72.10;100115.03;416444;23;1232;-80
2022/05/01 00:43:15;;;;;;;318.88;124.38;;;;;;;14.72;72.01;100114.97;419943;23;1374;-80
2022/05/01 00:43:25;;;;;;;314.00;122.78;;;;;;;14.74;72.16;100113.09;422145;23;1464;-80
2022/05/01 00:44:13;;;;;;;317.67;123.70;;;;;;;14.76;71.73;100113.84;420160;23;911;-80
2022/05/01 00:44:24;;;;;;;310.38;119.40;;;;;;;14.77;72.10;100118.19;417859;23;944;-80
2022/05/01 00:44:34;;;;;;;311.17;120.07;;;;;;;14.76;71.99;100116.50;416047;23;1272;-80
2022/05/01 00:44:45;;;;;;;315.17;123.13;;;;;;;14.76;71.87;100116.50;418003;23;1244;-80
2022/05/01 00:44:55;;;;;;;317.58;125.30;;;;;;;14.76;71.80;100119.13;414061;23;1222;-80
2022/05/01 00:45:07;;;;;;;322.23;127.77;;;;;;;14.74;71.84;100104.31;418164;23;1331;-80
2022/05/01 00:45:17;;;;;;;317.73;125.75;;;;;;;14.72;71.69;100106.22;420919;23;867;-80
2022/05/01 00:45:28;;;;;;;316.88;123.32;;;;;;;14.75;71.98;100113.94;417419;23;813;-80
2022/05/01 00:45:39;;;;;;;315.47;121.30;;;;;;;14.73;71.85;100113.19;417924;23;1229;-80
2022/05/01 00:45:49;;;;;;;316.35;121.90;;;;;;;14.69;71.69;100107.22;420275;23;1212;-80
2022/05/01 00:46:00;;;;;;;318.03;123.53;;;;;;;14.74;71.81;100118.34;414177;23;1225;-80
2022/05/01 00:46:10;;;;;;;318.43;123.60;;;;;;;14.72;71.61;100114.97;416398;23;1208;-80
2022/05/01 00:46:20;;;;;;;319.57;123.30;;;;;;;14.73;71.85;100114.00;416637;23;730;-80
2022/05/01 00:46:32;;;;;;;318.65;121.90;;;;;;;14.73;72.18;100116.66;416807;23;1253;-80
2022/05/01 00:46:47;;;;;;;317.92;123.15;;;;;;;14.76;71.82;100121.75;419041;23;988;-80
2022/05/01 00:46:59;;;;;;;314.83;123.50;;;;;;;14.74;71.89;100106.97;419867;23;1312;-80
2022/05/01 00:47:10;;;;;;;316.08;125.13;;;;;;;14.72;71.55;100114.97;418094;23;868;-80
2022/05/01 00:47:20;;;;;;;317.30;124.73;;;;;;;14.76;72.13;100118.28;416138;23;1189;-80
2022/05/01 00:47:31;;;;;;;318.13;125.18;;;;;;;14.79;71.79;100123.41;416011;23;1364;-80
2022/05/01 00:47:41;;;;;;;317.97;125.70;;;;;;;14.81;71.85;100118.91;416240;23;891;-80
2022/05/01 00:47:51;;;;;;;317.95;126.40;;;;;;;14.81;71.72;100111.00;414206;23;813;-80
2022/05/01 00:48:02;;;;;;;319.13;127.47;;;;;;;14.78;71.46;100117.28;418971;23;1297;-80
2022/05/01 00:48:12;;;;;;;317.75;125.57;;;;;;;14.79;71.45;100113.72;416711;23;1193;-80
2022/05/01 00:48:23;;;;;;;315.17;124.40;;;;;;;14.78;71.68;100117.28;417983;23;1157;-80
2022/05/01 00:48:33;;;;;;;313.38;124.68;;;;;;;14.79;71.62;100118.13;417928;23;1312;-80
2022/05/01 00:48:44;;;;;;;312.67;124.87;;;;;;;14.80;71.52;100120.69;416329;23;1166;-80
2022/05/01 00:48:54;;;;;;;312.27;124.40;;;;;;;14.80;71.56;100115.41;416174;23;1352;-80
2022/05/01 00:49:08;;;;;;;315.10;125.37;;;;;;;14.80;71.66;100119.81;418683;23;1253;-80
2022/05/01 00:49:26;;;;;;;317.30;125.00;;;;;;;14.79;71.51;100118.13;418888;23;884;-80
2022/05/01 00:49:36;;;;;;;313.58;122.53;;;;;;;14.70;71.63;100116.81;418030;23;1450;-80
2022/05/01 00:49:46;;;;;;;315.43;124.90;;;;;;;14.71;71.76;100120.31;416116;23;841;-80
2022/05/01 00:49:57;;;;;;;320.35;127.60;;;;;;;14.68;72.01;100116.03;420073;23;1331;-80
2022/05/01 00:50:07;;;;;;;322.43;128.13;;;;;;;14.73;71.88;100124.53;418097;23;1312;-80
2022/05/01 00:50:19;;;;;;;321.55;127.28;;;;;;;14.72;71.93;100122.88;417975;23;1185;-80
2022/05/01 00:50:29;;;;;;;323.63;126.78;;;;;;;14.71;71.85;100121.16;422491;23;1320;-80
2022/05/01 00:50:41;;;;;;;321.02;124.18;;;;;;;14.75;72.00;100116.56;416899;23;1299;-80
2022/05/01 00:50:52;;;;;;;318.25;122.57;;;;;;;14.70;72.13;100114.19;416346;23;1613;-80
2022/05/01 00:51:02;;;;;;;317.80;121.40;;;;;;;14.73;71.91;100114.00;418090;23;1193;-80
2022/05/01 00:51:13;;;;;;;315.95;120.80;;;;;;;14.71;72.05;100115.91;414279;23;1351;-80
2022/05/01 00:51:25;;;;;;;313.88;121.70;;;;;;;14.70;71.83;100119.47;420234;23;1592;-80
2022/05/01 00:51:44;;;;;;;313.35;123.13;;;;;;;14.74;72.11;100120.97;422381;23;1291;-80
2022/05/01 00:52:05;;;;;;;317.60;123.90;;;;;;;14.76;71.55;100119.13;416738;23;1433;-80
2022/05/01 00:52:16;;;;;;;316.48;123.47;;;;;;;14.78;71.74;100122.53;415950;23;945;-80
2022/05/01 00:52:26;;;;;;;314.77;123.27;;;;;;;14.77;71.59;100115.56;417878;23;1336;-80
2022/05/01 00:52:36;;;;;;;315.63;124.18;;;;;;;14.76;71.80;100119.13;421756;23;1172;-80
2022/05/01 00:52:47;;;;;;;318.43;124.40;;;;;;;14.78;71.76;100117.28;418153;23;1198;-80
2022/05/01 00:52:57;;;;;;;319.08;124.50;;;;;;;14.78;71.62;100112.00;416264;23;828;-80
2022/05/01 00:53:07;;;;;;;321.07;125.10;;;;;;;14.76;71.71;100113.84;418681;23;1293;-80
2022/05/01 00:53:18;;;;;;;321.43;125.90;;;;;;;14.78;71.45;100126.97;419139;23;1206;-80
2022/05/01 00:53:28;;;;;;;324.53;126.60;;;;;;;14.77;71.84;100114.72;418386;23;1200;-80
2022/05/01 00:53:39;;;;;;;322.60;126.10;;;;;;;14.75;71.72;100109.50;417987;23;1279;-80
2022/05/01 00:53:49;;;;;;;320.92;124.97;;;;;;;14.79;72.07;100116.34;416422;23;1263;-80
2022/05/01 00:54:02;;;;;;;317.50;123.90;;;;;;;14.73;72.00;100114.00;418195;23;1260;-80